sensor_id;sensor_type;location;lat;lon;timestamp;P1;durP1;ratioP1;P2;durP2;ratioP2
24277;SDS011;12394;42.692;23.314;2022-07-10T00:01:41;16.40;;;14.33;;
24277;SDS011;12394;42.692;23.314;2022-07-10T00:04:06;16.37;;;14.13;;
24277;SDS011;12394;42.692;23.314;2022-07-10T00:06:31;15.30;;;13.67;;
24277;SDS011;12394;42.692;23.314;2022-07-10T00:08:57;14.00;;;12.70;;
24277;SDS011;12394;42.692;23.314;2022-07-10T00:11:22;18.63;;;14.27;;
24277;SDS011;12394;42.692;23.314;2022-07-10T00:13:47;19.30;;;13.17;;
24277;SDS011;12394;42.692;23.314;2022-07-10T00:16:12;17.47;;;14.57;;
24277;SDS011;12394;42.692;23.314;2022-07-10T00:18:38;16.17;;;14.53;;
24277;SDS011;12394;42.692;23.314;2022-07-10T00:21:03;15.43;;;13.47;;
24277;SDS011;12394;42.692;23.314;2022-07-10T00:23:28;15.43;;;13.93;;
24277;SDS011;12394;42.692;23.314;2022-07-10T00:25:53;15.63;;;14.00;;
24277;SDS011;12394;42.692;23.314;2022-07-10T00:28:19;17.30;;;13.80;;
24277;SDS011;12394;42.692;23.314;2022-07-10T00:30:44;16.10;;;13.77;;
24277;SDS011;12394;42.692;23.314;2022-07-10T00:33:09;19.90;;;15.13;;
24277;SDS011;12394;42.692;23.314;2022-07-10T00:35:35;20.33;;;13.97;;
24277;SDS011;12394;42.692;23.314;2022-07-10T00:38:00;17.17;;;15.37;;
24277;SDS011;12394;42.692;23.314;2022-07-10T00:40:26;15.47;;;13.87;;
24277;SDS011;12394;42.692;23.314;2022-07-10T00:42:51;15.37;;;13.80;;
24277;SDS011;12394;42.692;23.314;2022-07-10T00:45:16;17.63;;;14.93;;
24277;SDS011;12394;42.692;23.314;2022-07-10T00:47:41;15.83;;;14.20;;
24277;SDS011;12394;42.692;23.314;2022-07-10T00:50:07;17.40;;;14.57;;
24277;SDS011;12394;42.692;23.314;2022-07-10T00:52:32;17.17;;;15.20;;
24277;SDS011;12394;42.692;23.314;2022-07-10T00:55:00;17.00;;;14.73;;
24277;SDS011;12394;42.692;23.314;2022-07-10T00:57:26;15.87;;;14.23;;
24277;SDS011;12394;42.692;23.314;2022-07-10T00:59:51;15.80;;;13.93;;
24277;SDS011;12394;42.692;23.314;2022-07-10T01:02:17;19.53;;;14.10;;
24277;SDS011;12394;42.692;23.314;2022-07-10T01:04:42;15.50;;;13.97;;
24277;SDS011;12394;42.692;23.314;2022-07-10T01:07:08;14.50;;;13.20;;
24277;SDS011;12394;42.692;23.314;2022-07-10T01:09:33;23.93;;;13.60;;
24277;SDS011;12394;42.692;23.314;2022-07-10T01:12:01;14.57;;;13.03;;
24277;SDS011;12394;42.692;23.314;2022-07-10T01:14:28;20.93;;;14.00;;
24277;SDS011;12394;42.692;23.314;2022-07-10T01:16:53;17.63;;;13.30;;
24277;SDS011;12394;42.692;23.314;2022-07-10T01:19:19;15.57;;;13.83;;
24277;SDS011;12394;42.692;23.314;2022-07-10T01:21:44;14.17;;;12.87;;
24277;SDS011;12394;42.692;23.314;2022-07-10T01:24:09;15.27;;;13.83;;
24277;SDS011;12394;42.692;23.314;2022-07-10T01:26:36;14.73;;;13.17;;
24277;SDS011;12394;42.692;23.314;2022-07-10T01:29:02;14.53;;;12.93;;
24277;SDS011;12394;42.692;23.314;2022-07-10T01:31:28;15.23;;;13.87;;
24277;SDS011;12394;42.692;23.314;2022-07-10T01:33:54;15.80;;;14.20;;
24277;SDS011;12394;42.692;23.314;2022-07-10T01:36:20;22.40;;;13.37;;
24277;SDS011;12394;42.692;23.314;2022-07-10T01:38:45;16.60;;;13.93;;
24277;SDS011;12394;42.692;23.314;2022-07-10T01:41:11;15.50;;;12.80;;
24277;SDS011;12394;42.692;23.314;2022-07-10T01:43:36;19.80;;;13.20;;
24277;SDS011;12394;42.692;23.314;2022-07-10T01:46:04;14.23;;;12.83;;
24277;SDS011;12394;42.692;23.314;2022-07-10T01:48:30;14.57;;;13.17;;
24277;SDS011;12394;42.692;23.314;2022-07-10T01:50:55;16.83;;;12.40;;
24277;SDS011;12394;42.692;23.314;2022-07-10T01:53:20;17.63;;;12.83;;
24277;SDS011;12394;42.692;23.314;2022-07-10T01:55:46;16.43;;;12.47;;
24277;SDS011;12394;42.692;23.314;2022-07-10T01:58:11;16.60;;;12.90;;
24277;SDS011;12394;42.692;23.314;2022-07-10T02:00:36;19.23;;;12.80;;
24277;SDS011;12394;42.692;23.314;2022-07-10T02:03:01;14.23;;;12.83;;
24277;SDS011;12394;42.692;23.314;2022-07-10T02:05:45;17.57;;;13.30;;
24277;SDS011;12394;42.692;23.314;2022-07-10T02:08:11;13.27;;;12.07;;
24277;SDS011;12394;42.692;23.314;2022-07-10T02:10:36;16.60;;;12.60;;
24277;SDS011;12394;42.692;23.314;2022-07-10T02:13:01;17.77;;;13.30;;
24277;SDS011;12394;42.692;23.314;2022-07-10T02:15:26;17.47;;;12.80;;
24277;SDS011;12394;42.692;23.314;2022-07-10T02:17:52;15.10;;;12.03;;
24277;SDS011;12394;42.692;23.314;2022-07-10T02:20:17;14.67;;;12.47;;
24277;SDS011;12394;42.692;23.314;2022-07-10T02:22:42;15.93;;;12.03;;
24277;SDS011;12394;42.692;23.314;2022-07-10T02:25:08;18.17;;;12.97;;
24277;SDS011;12394;42.692;23.314;2022-07-10T02:27:33;15.67;;;11.97;;
24277;SDS011;12394;42.692;23.314;2022-07-10T02:29:59;14.37;;;12.87;;
24277;SDS011;12394;42.692;23.314;2022-07-10T02:32:24;19.73;;;12.80;;
24277;SDS011;12394;42.692;23.314;2022-07-10T02:34:49;16.20;;;12.57;;
24277;SDS011;12394;42.692;23.314;2022-07-10T02:37:14;14.00;;;12.30;;
24277;SDS011;12394;42.692;23.314;2022-07-10T02:39:39;13.30;;;11.93;;
24277;SDS011;12394;42.692;23.314;2022-07-10T02:42:05;14.00;;;12.53;;
24277;SDS011;12394;42.692;23.314;2022-07-10T02:44:30;15.47;;;11.70;;
24277;SDS011;12394;42.692;23.314;2022-07-10T02:46:56;16.60;;;12.30;;
24277;SDS011;12394;42.692;23.314;2022-07-10T02:49:21;14.47;;;12.97;;
24277;SDS011;12394;42.692;23.314;2022-07-10T02:51:46;15.77;;;13.43;;
24277;SDS011;12394;42.692;23.314;2022-07-10T02:54:12;14.57;;;12.87;;
24277;SDS011;12394;42.692;23.314;2022-07-10T02:56:37;18.03;;;12.30;;
24277;SDS011;12394;42.692;23.314;2022-07-10T02:59:02;15.60;;;12.50;;
24277;SDS011;12394;42.692;23.314;2022-07-10T03:01:27;13.17;;;11.73;;
24277;SDS011;12394;42.692;23.314;2022-07-10T03:03:53;14.30;;;12.63;;
24277;SDS011;12394;42.692;23.314;2022-07-10T03:06:18;16.50;;;12.90;;
24277;SDS011;12394;42.692;23.314;2022-07-10T03:08:43;13.33;;;12.07;;
24277;SDS011;12394;42.692;23.314;2022-07-10T03:11:08;13.10;;;11.23;;
24277;SDS011;12394;42.692;23.314;2022-07-10T03:13:34;13.33;;;11.30;;
24277;SDS011;12394;42.692;23.314;2022-07-10T03:15:59;14.60;;;12.53;;
24277;SDS011;12394;42.692;23.314;2022-07-10T03:18:24;15.97;;;11.80;;
24277;SDS011;12394;42.692;23.314;2022-07-10T03:20:49;17.00;;;12.60;;
24277;SDS011;12394;42.692;23.314;2022-07-10T03:23:15;13.27;;;11.87;;
24277;SDS011;12394;42.692;23.314;2022-07-10T03:25:40;14.47;;;11.47;;
24277;SDS011;12394;42.692;23.314;2022-07-10T03:28:05;12.83;;;11.43;;
24277;SDS011;12394;42.692;23.314;2022-07-10T03:30:30;12.60;;;11.33;;
24277;SDS011;12394;42.692;23.314;2022-07-10T03:32:56;12.60;;;11.43;;
24277;SDS011;12394;42.692;23.314;2022-07-10T03:35:21;12.00;;;10.90;;
24277;SDS011;12394;42.692;23.314;2022-07-10T03:37:46;12.27;;;11.17;;
24277;SDS011;12394;42.692;23.314;2022-07-10T03:40:11;16.53;;;11.60;;
24277;SDS011;12394;42.692;23.314;2022-07-10T03:42:37;15.10;;;11.97;;
24277;SDS011;12394;42.692;23.314;2022-07-10T03:45:02;12.37;;;11.27;;
24277;SDS011;12394;42.692;23.314;2022-07-10T03:47:27;17.80;;;12.33;;
24277;SDS011;12394;42.692;23.314;2022-07-10T03:49:52;14.00;;;12.40;;
24277;SDS011;12394;42.692;23.314;2022-07-10T03:52:18;12.60;;;11.40;;
24277;SDS011;12394;42.692;23.314;2022-07-10T03:54:43;12.77;;;11.47;;
24277;SDS011;12394;42.692;23.314;2022-07-10T03:57:08;12.50;;;11.30;;
24277;SDS011;12394;42.692;23.314;2022-07-10T03:59:52;15.57;;;11.20;;
24277;SDS011;12394;42.692;23.314;2022-07-10T04:02:18;15.57;;;11.63;;
24277;SDS011;12394;42.692;23.314;2022-07-10T04:04:44;13.10;;;11.77;;
24277;SDS011;12394;42.692;23.314;2022-07-10T04:07:09;15.77;;;10.97;;
24277;SDS011;12394;42.692;23.314;2022-07-10T04:09:37;13.83;;;12.33;;
24277;SDS011;12394;42.692;23.314;2022-07-10T04:12:03;12.33;;;11.13;;
24277;SDS011;12394;42.692;23.314;2022-07-10T04:14:29;11.60;;;10.60;;
24277;SDS011;12394;42.692;23.314;2022-07-10T04:16:54;14.70;;;11.07;;
24277;SDS011;12394;42.692;23.314;2022-07-10T04:19:19;12.27;;;10.60;;
24277;SDS011;12394;42.692;23.314;2022-07-10T04:21:46;11.30;;;10.23;;
24277;SDS011;12394;42.692;23.314;2022-07-10T04:24:11;11.10;;;10.10;;
24277;SDS011;12394;42.692;23.314;2022-07-10T04:26:37;11.33;;;10.33;;
24277;SDS011;12394;42.692;23.314;2022-07-10T04:29:02;14.00;;;10.43;;
24277;SDS011;12394;42.692;23.314;2022-07-10T04:31:27;10.17;;;9.17;;
24277;SDS011;12394;42.692;23.314;2022-07-10T04:33:52;13.27;;;10.27;;
24277;SDS011;12394;42.692;23.314;2022-07-10T04:36:18;17.00;;;9.60;;
24277;SDS011;12394;42.692;23.314;2022-07-10T04:38:43;10.20;;;9.30;;
24277;SDS011;12394;42.692;23.314;2022-07-10T04:41:08;10.37;;;9.40;;
24277;SDS011;12394;42.692;23.314;2022-07-10T04:43:33;12.10;;;9.43;;
24277;SDS011;12394;42.692;23.314;2022-07-10T04:45:59;12.50;;;10.57;;
24277;SDS011;12394;42.692;23.314;2022-07-10T04:48:24;9.00;;;8.20;;
24277;SDS011;12394;42.692;23.314;2022-07-10T04:50:50;10.53;;;9.40;;
24277;SDS011;12394;42.692;23.314;2022-07-10T04:53:15;11.47;;;8.27;;
24277;SDS011;12394;42.692;23.314;2022-07-10T04:55:40;10.60;;;9.13;;
24277;SDS011;12394;42.692;23.314;2022-07-10T04:58:05;12.53;;;9.23;;
24277;SDS011;12394;42.692;23.314;2022-07-10T05:00:30;11.97;;;9.00;;
24277;SDS011;12394;42.692;23.314;2022-07-10T05:02:56;10.07;;;8.90;;
24277;SDS011;12394;42.692;23.314;2022-07-10T05:05:21;10.50;;;8.50;;
24277;SDS011;12394;42.692;23.314;2022-07-10T05:07:46;10.77;;;8.33;;
24277;SDS011;12394;42.692;23.314;2022-07-10T05:10:11;15.23;;;8.40;;
24277;SDS011;12394;42.692;23.314;2022-07-10T05:12:37;10.63;;;9.30;;
24277;SDS011;12394;42.692;23.314;2022-07-10T05:15:02;9.97;;;8.80;;
24277;SDS011;12394;42.692;23.314;2022-07-10T05:17:28;9.07;;;8.00;;
24277;SDS011;12394;42.692;23.314;2022-07-10T05:19:53;8.80;;;7.97;;
24277;SDS011;12394;42.692;23.314;2022-07-10T05:22:20;10.33;;;8.73;;
24277;SDS011;12394;42.692;23.314;2022-07-10T05:24:46;11.80;;;8.83;;
24277;SDS011;12394;42.692;23.314;2022-07-10T05:27:11;9.73;;;8.57;;
24277;SDS011;12394;42.692;23.314;2022-07-10T05:29:36;8.90;;;8.03;;
24277;SDS011;12394;42.692;23.314;2022-07-10T05:32:02;10.67;;;8.20;;
24277;SDS011;12394;42.692;23.314;2022-07-10T05:34:27;10.20;;;8.47;;
24277;SDS011;12394;42.692;23.314;2022-07-10T05:36:52;10.70;;;8.87;;
24277;SDS011;12394;42.692;23.314;2022-07-10T05:39:17;8.63;;;7.33;;
24277;SDS011;12394;42.692;23.314;2022-07-10T05:41:43;15.03;;;8.37;;
24277;SDS011;12394;42.692;23.314;2022-07-10T05:44:08;9.03;;;8.20;;
24277;SDS011;12394;42.692;23.314;2022-07-10T05:46:33;9.00;;;7.53;;
24277;SDS011;12394;42.692;23.314;2022-07-10T05:48:59;8.70;;;7.90;;
24277;SDS011;12394;42.692;23.314;2022-07-10T05:51:24;8.03;;;7.20;;
24277;SDS011;12394;42.692;23.314;2022-07-10T05:53:49;8.00;;;7.20;;
24277;SDS011;12394;42.692;23.314;2022-07-10T05:56:14;9.57;;;7.60;;
24277;SDS011;12394;42.692;23.314;2022-07-10T05:58:39;13.13;;;7.77;;
24277;SDS011;12394;42.692;23.314;2022-07-10T06:01:05;13.70;;;7.20;;
24277;SDS011;12394;42.692;23.314;2022-07-10T06:03:30;8.17;;;6.73;;
24277;SDS011;12394;42.692;23.314;2022-07-10T06:05:55;9.00;;;6.97;;
24277;SDS011;12394;42.692;23.314;2022-07-10T06:08:21;7.40;;;6.63;;
24277;SDS011;12394;42.692;23.314;2022-07-10T06:10:46;7.50;;;6.30;;
24277;SDS011;12394;42.692;23.314;2022-07-10T06:13:11;9.60;;;5.80;;
24277;SDS011;12394;42.692;23.314;2022-07-10T06:15:36;9.67;;;6.33;;
24277;SDS011;12394;42.692;23.314;2022-07-10T06:18:02;10.60;;;6.20;;
24277;SDS011;12394;42.692;23.314;2022-07-10T06:20:27;13.63;;;6.93;;
24277;SDS011;12394;42.692;23.314;2022-07-10T06:22:53;12.97;;;5.90;;
24277;SDS011;12394;42.692;23.314;2022-07-10T06:25:18;10.37;;;5.77;;
24277;SDS011;12394;42.692;23.314;2022-07-10T06:27:43;6.53;;;5.80;;
24277;SDS011;12394;42.692;23.314;2022-07-10T06:30:08;6.63;;;5.10;;
24277;SDS011;12394;42.692;23.314;2022-07-10T06:32:34;7.93;;;5.63;;
24277;SDS011;12394;42.692;23.314;2022-07-10T06:34:59;8.17;;;6.10;;
24277;SDS011;12394;42.692;23.314;2022-07-10T06:37:24;7.00;;;5.33;;
24277;SDS011;12394;42.692;23.314;2022-07-10T06:39:50;6.50;;;5.37;;
24277;SDS011;12394;42.692;23.314;2022-07-10T06:42:15;5.93;;;5.17;;
24277;SDS011;12394;42.692;23.314;2022-07-10T06:44:42;5.67;;;5.03;;
24277;SDS011;12394;42.692;23.314;2022-07-10T06:47:07;5.93;;;4.80;;
24277;SDS011;12394;42.692;23.314;2022-07-10T06:49:51;7.03;;;4.87;;
24277;SDS011;12394;42.692;23.314;2022-07-10T06:52:17;6.30;;;5.57;;
24277;SDS011;12394;42.692;23.314;2022-07-10T06:54:42;8.37;;;5.70;;
24277;SDS011;12394;42.692;23.314;2022-07-10T06:57:08;6.23;;;5.10;;
24277;SDS011;12394;42.692;23.314;2022-07-10T06:59:33;7.37;;;4.33;;
24277;SDS011;12394;42.692;23.314;2022-07-10T07:01:58;5.57;;;4.90;;
24277;SDS011;12394;42.692;23.314;2022-07-10T07:04:23;6.20;;;4.83;;
24277;SDS011;12394;42.692;23.314;2022-07-10T07:06:49;11.50;;;5.50;;
24277;SDS011;12394;42.692;23.314;2022-07-10T07:09:14;9.07;;;5.03;;
24277;SDS011;12394;42.692;23.314;2022-07-10T07:11:39;7.50;;;4.93;;
24277;SDS011;12394;42.692;23.314;2022-07-10T07:14:04;7.87;;;4.97;;
24277;SDS011;12394;42.692;23.314;2022-07-10T07:16:30;5.03;;;4.57;;
24277;SDS011;12394;42.692;23.314;2022-07-10T07:19:11;10.67;;;5.50;;
24277;SDS011;12394;42.692;23.314;2022-07-10T07:21:37;6.53;;;5.17;;
24277;SDS011;12394;42.692;23.314;2022-07-10T07:24:21;7.00;;;4.90;;
24277;SDS011;12394;42.692;23.314;2022-07-10T07:26:47;11.57;;;6.50;;
24277;SDS011;12394;42.692;23.314;2022-07-10T07:29:16;7.03;;;5.00;;
24277;SDS011;12394;42.692;23.314;2022-07-10T07:31:41;5.33;;;4.80;;
24277;SDS011;12394;42.692;23.314;2022-07-10T07:34:07;10.13;;;4.77;;
24277;SDS011;12394;42.692;23.314;2022-07-10T07:36:32;7.53;;;5.13;;
24277;SDS011;12394;42.692;23.314;2022-07-10T07:38:57;6.20;;;4.40;;
24277;SDS011;12394;42.692;23.314;2022-07-10T07:41:23;10.77;;;5.43;;
24277;SDS011;12394;42.692;23.314;2022-07-10T07:43:48;7.67;;;4.77;;
24277;SDS011;12394;42.692;23.314;2022-07-10T07:46:14;5.10;;;4.60;;
24277;SDS011;12394;42.692;23.314;2022-07-10T07:48:39;5.63;;;4.83;;
24277;SDS011;12394;42.692;23.314;2022-07-10T07:51:04;7.60;;;4.50;;
24277;SDS011;12394;42.692;23.314;2022-07-10T07:53:30;4.80;;;4.20;;
24277;SDS011;12394;42.692;23.314;2022-07-10T07:55:55;4.87;;;3.57;;
24277;SDS011;12394;42.692;23.314;2022-07-10T07:58:20;4.47;;;4.00;;
24277;SDS011;12394;42.692;23.314;2022-07-10T08:00:45;9.17;;;3.63;;
24277;SDS011;12394;42.692;23.314;2022-07-10T08:03:11;6.27;;;4.47;;
24277;SDS011;12394;42.692;23.314;2022-07-10T08:05:36;11.07;;;4.63;;
24277;SDS011;12394;42.692;23.314;2022-07-10T08:08:01;10.93;;;4.20;;
24277;SDS011;12394;42.692;23.314;2022-07-10T08:10:32;7.10;;;3.63;;
24277;SDS011;12394;42.692;23.314;2022-07-10T08:12:58;9.67;;;4.20;;
24277;SDS011;12394;42.692;23.314;2022-07-10T08:15:23;5.73;;;3.47;;
24277;SDS011;12394;42.692;23.314;2022-07-10T08:17:49;4.47;;;3.10;;
24277;SDS011;12394;42.692;23.314;2022-07-10T08:20:14;6.03;;;3.33;;
24277;SDS011;12394;42.692;23.314;2022-07-10T08:22:40;6.63;;;3.00;;
24277;SDS011;12394;42.692;23.314;2022-07-10T08:25:06;3.20;;;2.90;;
24277;SDS011;12394;42.692;23.314;2022-07-10T08:27:31;4.83;;;3.47;;
24277;SDS011;12394;42.692;23.314;2022-07-10T08:29:57;6.00;;;3.20;;
24277;SDS011;12394;42.692;23.314;2022-07-10T08:32:22;8.00;;;3.40;;
24277;SDS011;12394;42.692;23.314;2022-07-10T08:34:48;3.90;;;2.87;;
24277;SDS011;12394;42.692;23.314;2022-07-10T08:37:13;8.37;;;3.37;;
24277;SDS011;12394;42.692;23.314;2022-07-10T08:39:38;8.70;;;3.37;;
24277;SDS011;12394;42.692;23.314;2022-07-10T08:42:04;5.70;;;3.60;;
24277;SDS011;12394;42.692;23.314;2022-07-10T08:44:31;7.37;;;2.80;;
24277;SDS011;12394;42.692;23.314;2022-07-10T08:46:56;7.43;;;3.20;;
24277;SDS011;12394;42.692;23.314;2022-07-10T08:49:28;3.43;;;2.80;;
24277;SDS011;12394;42.692;23.314;2022-07-10T08:51:58;4.47;;;3.40;;
24277;SDS011;12394;42.692;23.314;2022-07-10T08:54:25;6.20;;;3.23;;
24277;SDS011;12394;42.692;23.314;2022-07-10T08:56:52;7.30;;;4.93;;
24277;SDS011;12394;42.692;23.314;2022-07-10T08:59:17;5.87;;;3.37;;
24277;SDS011;12394;42.692;23.314;2022-07-10T09:01:43;5.47;;;4.40;;
24277;SDS011;12394;42.692;23.314;2022-07-10T09:04:15;6.73;;;3.60;;
24277;SDS011;12394;42.692;23.314;2022-07-10T09:06:41;3.20;;;2.90;;
24277;SDS011;12394;42.692;23.314;2022-07-10T09:09:06;6.97;;;2.63;;
24277;SDS011;12394;42.692;23.314;2022-07-10T09:11:32;4.67;;;2.90;;
24277;SDS011;12394;42.692;23.314;2022-07-10T09:13:59;4.67;;;3.30;;
24277;SDS011;12394;42.692;23.314;2022-07-10T09:16:32;3.80;;;3.50;;
24277;SDS011;12394;42.692;23.314;2022-07-10T09:19:13;8.87;;;2.97;;
24277;SDS011;12394;42.692;23.314;2022-07-10T09:21:39;5.37;;;4.63;;
24277;SDS011;12394;42.692;23.314;2022-07-10T09:24:04;8.53;;;6.90;;
24277;SDS011;12394;42.692;23.314;2022-07-10T09:26:32;8.17;;;4.17;;
24277;SDS011;12394;42.692;23.314;2022-07-10T09:34:18;4.60;;;2.90;;
24277;SDS011;12394;42.692;23.314;2022-07-10T09:36:43;6.70;;;3.30;;
24277;SDS011;12394;42.692;23.314;2022-07-10T09:39:09;6.70;;;4.97;;
24277;SDS011;12394;42.692;23.314;2022-07-10T09:41:34;4.33;;;3.40;;
24277;SDS011;12394;42.692;23.314;2022-07-10T09:44:01;6.80;;;2.87;;
24277;SDS011;12394;42.692;23.314;2022-07-10T09:46:30;15.70;;;3.80;;
24277;SDS011;12394;42.692;23.314;2022-07-10T09:49:08;4.63;;;2.80;;
24277;SDS011;12394;42.692;23.314;2022-07-10T09:51:36;6.37;;;2.70;;
24277;SDS011;12394;42.692;23.314;2022-07-10T09:54:02;3.10;;;2.80;;
24277;SDS011;12394;42.692;23.314;2022-07-10T09:56:30;3.50;;;3.20;;
24277;SDS011;12394;42.692;23.314;2022-07-10T09:58:58;4.30;;;3.50;;
24277;SDS011;12394;42.692;23.314;2022-07-10T10:01:24;3.47;;;3.17;;
24277;SDS011;12394;42.692;23.314;2022-07-10T10:03:51;5.90;;;2.97;;
24277;SDS011;12394;42.692;23.314;2022-07-10T10:06:17;3.63;;;3.33;;
24277;SDS011;12394;42.692;23.314;2022-07-10T10:11:27;3.77;;;3.40;;
24277;SDS011;12394;42.692;23.314;2022-07-10T10:13:53;5.33;;;4.00;;
24277;SDS011;12394;42.692;23.314;2022-07-10T10:16:19;4.70;;;2.70;;
24277;SDS011;12394;42.692;23.314;2022-07-10T10:18:45;5.87;;;2.60;;
24277;SDS011;12394;42.692;23.314;2022-07-10T10:21:29;4.20;;;2.83;;
24277;SDS011;12394;42.692;23.314;2022-07-10T10:23:55;4.38;;;3.85;;
24277;SDS011;12394;42.692;23.314;2022-07-10T10:26:21;8.73;;;2.63;;
24277;SDS011;12394;42.692;23.314;2022-07-10T10:28:46;5.67;;;3.00;;
24277;SDS011;12394;42.692;23.314;2022-07-10T10:31:12;6.80;;;4.07;;
24277;SDS011;12394;42.692;23.314;2022-07-10T10:33:41;5.83;;;3.53;;
24277;SDS011;12394;42.692;23.314;2022-07-10T10:36:07;7.67;;;3.10;;
24277;SDS011;12394;42.692;23.314;2022-07-10T10:41:22;8.83;;;3.50;;
24277;SDS011;12394;42.692;23.314;2022-07-10T10:46:31;4.73;;;2.83;;
24277;SDS011;12394;42.692;23.314;2022-07-10T10:49:06;6.00;;;2.93;;
24277;SDS011;12394;42.692;23.314;2022-07-10T10:54:16;4.90;;;3.47;;
24277;SDS011;12394;42.692;23.314;2022-07-10T10:56:41;3.97;;;2.80;;
24277;SDS011;12394;42.692;23.314;2022-07-10T10:59:07;4.13;;;2.97;;
24277;SDS011;12394;42.692;23.314;2022-07-10T11:01:32;5.90;;;2.90;;
24277;SDS011;12394;42.692;23.314;2022-07-10T11:06:45;4.73;;;3.10;;
24277;SDS011;12394;42.692;23.314;2022-07-10T11:12:08;4.13;;;2.70;;
24277;SDS011;12394;42.692;23.314;2022-07-10T11:16:59;3.80;;;3.00;;
24277;SDS011;12394;42.692;23.314;2022-07-10T11:19:25;3.97;;;3.20;;
24277;SDS011;12394;42.692;23.314;2022-07-10T11:21:56;3.03;;;2.70;;
24277;SDS011;12394;42.692;23.314;2022-07-10T11:29:57;6.47;;;2.70;;
24277;SDS011;12394;42.692;23.314;2022-07-10T11:32:23;3.47;;;2.83;;
24277;SDS011;12394;42.692;23.314;2022-07-10T11:34:48;7.03;;;2.77;;
24277;SDS011;12394;42.692;23.314;2022-07-10T11:37:16;4.43;;;2.37;;
24277;SDS011;12394;42.692;23.314;2022-07-10T11:39:42;4.57;;;2.67;;
24277;SDS011;12394;42.692;23.314;2022-07-10T11:42:07;5.00;;;2.67;;
24277;SDS011;12394;42.692;23.314;2022-07-10T11:44:33;3.53;;;3.23;;
24277;SDS011;12394;42.692;23.314;2022-07-10T11:46:58;7.00;;;3.00;;
24277;SDS011;12394;42.692;23.314;2022-07-10T11:49:24;4.13;;;2.63;;
24277;SDS011;12394;42.692;23.314;2022-07-10T11:51:50;6.03;;;2.97;;
24277;SDS011;12394;42.692;23.314;2022-07-10T11:54:16;5.17;;;3.30;;
24277;SDS011;12394;42.692;23.314;2022-07-10T11:56:47;5.33;;;2.77;;
24277;SDS011;12394;42.692;23.314;2022-07-10T11:59:13;8.90;;;4.07;;
24277;SDS011;12394;42.692;23.314;2022-07-10T12:01:45;4.83;;;3.40;;
24277;SDS011;12394;42.692;23.314;2022-07-10T12:04:10;7.37;;;2.73;;
24277;SDS011;12394;42.692;23.314;2022-07-10T12:06:37;2.97;;;2.67;;
24277;SDS011;12394;42.692;23.314;2022-07-10T12:11:28;4.37;;;2.40;;
24277;SDS011;12394;42.692;23.314;2022-07-10T12:13:56;4.60;;;2.53;;
24277;SDS011;12394;42.692;23.314;2022-07-10T12:16:34;4.40;;;1.90;;
24277;SDS011;12394;42.692;23.314;2022-07-10T12:19:00;4.27;;;2.33;;
24277;SDS011;12394;42.692;23.314;2022-07-10T12:21:25;2.80;;;2.10;;
24277;SDS011;12394;42.692;23.314;2022-07-10T12:23:50;5.07;;;2.77;;
24277;SDS011;12394;42.692;23.314;2022-07-10T12:26:16;4.50;;;2.43;;
24277;SDS011;12394;42.692;23.314;2022-07-10T12:31:36;2.03;;;1.83;;
24277;SDS011;12394;42.692;23.314;2022-07-10T12:34:03;3.73;;;2.47;;
24277;SDS011;12394;42.692;23.314;2022-07-10T12:36:41;5.47;;;2.50;;
24277;SDS011;12394;42.692;23.314;2022-07-10T12:39:08;3.83;;;2.30;;
24277;SDS011;12394;42.692;23.314;2022-07-10T12:41:34;2.63;;;2.40;;
24277;SDS011;12394;42.692;23.314;2022-07-10T12:44:00;4.60;;;2.10;;
24277;SDS011;12394;42.692;23.314;2022-07-10T12:46:25;7.60;;;2.10;;
24277;SDS011;12394;42.692;23.314;2022-07-10T12:49:09;4.10;;;1.87;;
24277;SDS011;12394;42.692;23.314;2022-07-10T12:51:42;4.17;;;2.30;;
24277;SDS011;12394;42.692;23.314;2022-07-10T12:54:09;7.23;;;2.20;;
24277;SDS011;12394;42.692;23.314;2022-07-10T12:56:57;4.60;;;2.20;;
24277;SDS011;12394;42.692;23.314;2022-07-10T12:59:23;2.70;;;2.10;;
24277;SDS011;12394;42.692;23.314;2022-07-10T13:01:48;4.90;;;2.37;;
24277;SDS011;12394;42.692;23.314;2022-07-10T13:04:14;2.87;;;2.00;;
24277;SDS011;12394;42.692;23.314;2022-07-10T13:06:40;3.83;;;1.50;;
24277;SDS011;12394;42.692;23.314;2022-07-10T13:09:24;5.40;;;1.90;;
24277;SDS011;12394;42.692;23.314;2022-07-10T13:11:53;2.33;;;1.47;;
24277;SDS011;12394;42.692;23.314;2022-07-10T13:14:19;4.47;;;1.63;;
24277;SDS011;12394;42.692;23.314;2022-07-10T13:16:44;1.97;;;1.60;;
24277;SDS011;12394;42.692;23.314;2022-07-10T13:19:10;3.43;;;2.00;;
24277;SDS011;12394;42.692;23.314;2022-07-10T13:21:35;3.50;;;1.50;;
24277;SDS011;12394;42.692;23.314;2022-07-10T13:24:01;1.80;;;1.40;;
24277;SDS011;12394;42.692;23.314;2022-07-10T13:26:28;3.37;;;1.47;;
24277;SDS011;12394;42.692;23.314;2022-07-10T13:28:54;3.47;;;1.33;;
24277;SDS011;12394;42.692;23.314;2022-07-10T13:31:19;5.10;;;2.10;;
24277;SDS011;12394;42.692;23.314;2022-07-10T13:33:45;2.47;;;1.70;;
24277;SDS011;12394;42.692;23.314;2022-07-10T13:36:10;3.43;;;1.77;;
24277;SDS011;12394;42.692;23.314;2022-07-10T13:38:35;5.00;;;1.73;;
24277;SDS011;12394;42.692;23.314;2022-07-10T13:41:02;3.17;;;1.27;;
24277;SDS011;12394;42.692;23.314;2022-07-10T13:43:27;2.27;;;1.60;;
24277;SDS011;12394;42.692;23.314;2022-07-10T13:45:56;4.07;;;1.37;;
24277;SDS011;12394;42.692;23.314;2022-07-10T13:48:21;6.40;;;1.53;;
24277;SDS011;12394;42.692;23.314;2022-07-10T13:50:46;6.67;;;1.73;;
24277;SDS011;12394;42.692;23.314;2022-07-10T13:53:12;2.87;;;1.60;;
24277;SDS011;12394;42.692;23.314;2022-07-10T13:55:38;3.83;;;1.30;;
24277;SDS011;12394;42.692;23.314;2022-07-10T13:58:03;1.50;;;1.40;;
24277;SDS011;12394;42.692;23.314;2022-07-10T14:00:28;4.10;;;1.70;;
24277;SDS011;12394;42.692;23.314;2022-07-10T14:02:54;4.80;;;1.53;;
24277;SDS011;12394;42.692;23.314;2022-07-10T14:05:21;5.40;;;1.80;;
24277;SDS011;12394;42.692;23.314;2022-07-10T14:07:46;1.97;;;1.50;;
24277;SDS011;12394;42.692;23.314;2022-07-10T14:10:12;2.50;;;1.50;;
24277;SDS011;12394;42.692;23.314;2022-07-10T14:12:37;4.80;;;1.47;;
24277;SDS011;12394;42.692;23.314;2022-07-10T14:15:02;4.17;;;2.20;;
24277;SDS011;12394;42.692;23.314;2022-07-10T14:17:27;2.97;;;1.83;;
24277;SDS011;12394;42.692;23.314;2022-07-10T14:19:54;3.03;;;1.23;;
24277;SDS011;12394;42.692;23.314;2022-07-10T14:22:20;2.23;;;1.60;;
24277;SDS011;12394;42.692;23.314;2022-07-10T14:24:46;4.87;;;1.53;;
24277;SDS011;12394;42.692;23.314;2022-07-10T14:27:11;2.37;;;1.43;;
24277;SDS011;12394;42.692;23.314;2022-07-10T14:29:37;4.00;;;1.50;;
24277;SDS011;12394;42.692;23.314;2022-07-10T14:32:02;2.87;;;1.90;;
24277;SDS011;12394;42.692;23.314;2022-07-10T14:34:28;2.83;;;1.67;;
24277;SDS011;12394;42.692;23.314;2022-07-10T14:36:54;4.13;;;1.53;;
24277;SDS011;12394;42.692;23.314;2022-07-10T14:39:19;7.50;;;1.87;;
24277;SDS011;12394;42.692;23.314;2022-07-10T14:41:44;3.97;;;1.67;;
24277;SDS011;12394;42.692;23.314;2022-07-10T14:44:09;6.90;;;1.60;;
24277;SDS011;12394;42.692;23.314;2022-07-10T14:46:35;5.20;;;1.90;;
24277;SDS011;12394;42.692;23.314;2022-07-10T14:49:01;1.93;;;1.77;;
24277;SDS011;12394;42.692;23.314;2022-07-10T14:51:26;4.20;;;1.57;;
24277;SDS011;12394;42.692;23.314;2022-07-10T14:53:51;6.57;;;1.73;;
24277;SDS011;12394;42.692;23.314;2022-07-10T14:56:17;1.73;;;1.60;;